createdAt,value
2023-01-30T00:00:23.966Z,86.98
2023-01-30T00:03:27.152Z,87.78
2023-01-30T00:06:29.463Z,87.29
2023-01-30T00:09:31.982Z,87.46
2023-01-30T00:12:34.265Z,88.25
2023-01-30T00:15:37.143Z,89.59
2023-01-30T00:18:40.722Z,88.85
2023-01-30T00:21:43.194Z,88.50
2023-01-30T00:24:45.485Z,89.29
2023-01-30T00:27:48.037Z,89.79
2023-01-30T00:30:54.545Z,90.50
2023-01-30T00:33:58.409Z,90.16
2023-01-30T00:37:08.214Z,90.31
2023-01-30T00:40:11.636Z,90.80
2023-01-30T00:43:35.431Z,90.76
2023-01-30T00:47:03.875Z,90.20
2023-01-30T00:50:06.468Z,91.40
2023-01-30T00:53:16.064Z,90.76
2023-01-30T00:56:18.287Z,91.39
2023-01-30T00:59:20.936Z,92.05
2023-01-30T01:02:23.314Z,91.78
2023-01-30T01:05:26.494Z,91.96
2023-01-30T01:08:28.720Z,93.03
2023-01-30T01:11:31.660Z,92.86
2023-01-30T01:14:34.109Z,91.63
2023-01-30T01:17:36.822Z,92.24
2023-01-30T01:20:39.009Z,93.12
2023-01-30T01:23:42.017Z,92.17
2023-01-30T01:26:45.150Z,91.51
2023-01-30T01:29:47.599Z,92.33
2023-01-30T01:32:51.174Z,92.55
2023-01-30T01:35:56.930Z,91.84
2023-01-30T01:38:59.215Z,91.71
2023-01-30T01:42:01.679Z,90.74
2023-01-30T01:45:13.145Z,90.90
2023-01-30T01:48:28.204Z,91.48
2023-01-30T01:51:36.790Z,92.51
2023-01-30T01:54:48.386Z,91.88
2023-01-30T01:57:59.310Z,91.85
2023-01-30T02:01:02.236Z,92.83
2023-01-30T02:04:09.032Z,93.19
2023-01-30T02:07:11.258Z,93.23
2023-01-30T02:10:19.051Z,93.42
2023-01-30T02:13:23.082Z,93.46
2023-01-30T02:16:25.335Z,93.64
2023-01-30T02:19:49.308Z,94.11
2023-01-30T02:23:13.608Z,94.14
2023-01-30T02:26:38.258Z,94.60
2023-01-30T02:30:02.185Z,95.66
2023-01-30T02:33:07.873Z,95.06
2023-01-30T02:36:28.635Z,96.04
2023-01-30T02:40:02.960Z,94.82
2023-01-30T02:43:15.356Z,93.79
2023-01-30T02:46:25.213Z,94.82
2023-01-30T02:49:50.025Z,94.08
2023-01-30T02:52:53.417Z,93.80
2023-01-30T02:55:55.637Z,93.67
2023-01-30T02:59:06.150Z,94.21
2023-01-30T03:02:08.619Z,94.72
2023-01-30T03:05:36.820Z,94.97
2023-01-30T03:09:10.206Z,95.50
2023-01-30T03:12:25.016Z,96.32
2023-01-30T03:15:35.831Z,97.13
2023-01-30T03:18:41.715Z,97.03
2023-01-30T03:21:45.549Z,97.20
2023-01-30T03:24:51.756Z,97.87
2023-01-30T03:27:55.877Z,97.72
2023-01-30T03:30:58.592Z,97.55
2023-01-30T03:34:00.916Z,97.49
2023-01-30T03:37:04.689Z,97.72
2023-01-30T03:40:10.467Z,99.27
2023-01-30T03:43:13.153Z,98.43
2023-01-30T03:46:15.428Z,99.12
2023-01-30T03:49:18.221Z,98.40
2023-01-30T03:52:23.691Z,98.59
2023-01-30T03:55:26.257Z,99.10
2023-01-30T03:58:28.779Z,97.55
2023-01-30T04:01:31.741Z,98.00
2023-01-30T04:04:35.151Z,98.92
2023-01-30T04:07:37.713Z,98.02
2023-01-30T04:10:40.497Z,98.04
2023-01-30T04:13:42.833Z,98.76
2023-01-30T04:16:46.098Z,98.56
2023-01-30T04:19:49.811Z,98.53
2023-01-30T04:22:54.763Z,98.99
2023-01-30T04:25:57.632Z,99.21
2023-01-30T04:29:00.631Z,99.30
2023-01-30T04:32:03.501Z,99.33
2023-01-30T04:35:06.888Z,100.00
2023-01-30T04:38:09.355Z,100.00
2023-01-30T04:41:12.281Z,100.00
2023-01-30T04:44:14.615Z,100.00
2023-01-30T04:47:18.291Z,100.00
2023-01-30T04:50:20.694Z,100.00
2023-01-30T04:53:24.549Z,100.00
2023-01-30T04:56:27.325Z,100.00
2023-01-30T04:59:29.849Z,100.00
2023-01-30T05:02:34.128Z,100.00
2023-01-30T05:05:36.930Z,100.00
2023-01-30T05:08:39.177Z,100.00
2023-01-30T05:11:42.212Z,100.00
2023-01-30T05:14:46.708Z,100.00
2023-01-30T05:17:49.703Z,100.00
2023-01-30T05:20:51.843Z,100.00
2023-01-30T05:23:56.093Z,100.00
2023-01-30T05:26:58.370Z,100.00
2023-01-30T05:30:00.926Z,100.00
2023-01-30T05:33:03.177Z,100.00
2023-01-30T05:36:06.718Z,100.00
2023-01-30T05:39:08.903Z,100.00
2023-01-30T05:42:11.380Z,100.00
2023-01-30T05:45:13.604Z,100.00
2023-01-30T05:48:16.046Z,100.00
2023-01-30T05:51:19.366Z,100.00
2023-01-30T05:54:21.857Z,100.00
2023-01-30T05:57:24.143Z,100.00
2023-01-30T06:00:26.709Z,100.00
2023-01-30T06:03:29.574Z,100.00
2023-01-30T06:06:31.845Z,100.00
2023-01-30T06:09:34.356Z,100.00
2023-01-30T06:12:36.893Z,100.00
2023-01-30T06:15:39.791Z,100.00
2023-01-30T06:18:43.564Z,100.00
2023-01-30T06:21:46.253Z,100.00
2023-01-30T06:24:48.511Z,100.00
2023-01-30T06:27:51.210Z,100.00
2023-01-30T06:30:53.973Z,100.00
2023-01-30T06:33:56.600Z,100.00
2023-01-30T06:36:58.825Z,100.00
2023-01-30T06:40:01.423Z,99.75
2023-01-30T06:43:04.475Z,99.28
2023-01-30T06:46:07.074Z,98.92
2023-01-30T06:49:10.050Z,98.45
2023-01-30T06:52:13.053Z,97.72
2023-01-30T06:55:18.425Z,97.23
2023-01-30T06:58:21.422Z,94.73
2023-01-30T07:01:24.326Z,93.27
2023-01-30T07:04:27.424Z,91.99
2023-01-30T07:07:30.903Z,91.98
2023-01-30T07:10:33.703Z,90.63
2023-01-30T07:13:36.009Z,90.05
2023-01-30T07:16:38.541Z,89.23
2023-01-30T07:19:40.774Z,89.40
2023-01-30T07:22:43.347Z,89.38
2023-01-30T07:25:45.691Z,89.14
2023-01-30T07:28:48.150Z,88.99
2023-01-30T07:31:51.511Z,89.05
2023-01-30T07:34:54.047Z,89.02
2023-01-30T07:37:56.804Z,88.74
2023-01-30T07:41:00.603Z,88.40
2023-01-30T07:44:03.008Z,87.54
2023-01-30T07:47:05.623Z,88.65
2023-01-30T07:50:08.670Z,86.73
2023-01-30T07:53:13.839Z,87.16
2023-01-30T07:56:23.665Z,85.71
2023-01-30T07:59:27.854Z,85.32
2023-01-30T08:02:30.331Z,85.88
2023-01-30T08:05:33.120Z,85.14
2023-01-30T08:08:37.498Z,84.46
2023-01-30T08:11:40.442Z,84.55
2023-01-30T08:14:42.900Z,85.09
2023-01-30T08:17:53.782Z,85.71
2023-01-30T08:21:04.569Z,85.40
2023-01-30T08:24:07.678Z,85.05
2023-01-30T08:27:10.036Z,85.12
2023-01-30T08:30:13.691Z,86.02
2023-01-30T08:33:16.060Z,85.56
2023-01-30T08:36:18.552Z,85.02
2023-01-30T08:39:20.836Z,85.18
2023-01-30T08:42:23.446Z,85.24
2023-01-30T08:45:25.829Z,86.13
2023-01-30T08:48:36.723Z,85.17
2023-01-30T08:51:42.412Z,84.44
2023-01-30T08:54:46.562Z,84.17
2023-01-30T08:57:48.985Z,82.58
2023-01-30T09:00:51.599Z,83.74
2023-01-30T09:03:53.847Z,84.08
2023-01-30T09:06:56.563Z,83.64
2023-01-30T09:09:58.908Z,83.56
2023-01-30T09:13:01.411Z,82.57
2023-01-30T09:16:06.468Z,83.13
2023-01-30T09:19:08.985Z,82.88
2023-01-30T09:22:11.229Z,82.38
2023-01-30T09:25:13.871Z,82.25
2023-01-30T09:28:16.030Z,80.30
2023-01-30T09:31:18.622Z,79.76
2023-01-30T09:34:20.988Z,79.30
2023-01-30T09:37:23.676Z,79.58
2023-01-30T09:40:29.344Z,80.26
2023-01-30T09:43:34.636Z,80.70
2023-01-30T09:46:50.061Z,80.47
2023-01-30T09:50:25.715Z,81.99
2023-01-30T09:53:46.862Z,81.02
2023-01-30T09:56:55.319Z,81.35
2023-01-30T10:00:14.198Z,82.47
2023-01-30T10:03:26.079Z,82.45
2023-01-30T10:06:28.860Z,83.31
2023-01-30T10:09:40.395Z,83.43
2023-01-30T10:12:57.430Z,83.84
2023-01-30T10:16:36.289Z,84.96
2023-01-30T10:20:00.355Z,84.00
2023-01-30T10:23:20.973Z,82.36
2023-01-30T10:26:27.207Z,78.90
2023-01-30T10:30:03.586Z,75.06
2023-01-30T10:33:19.277Z,72.04
2023-01-30T10:36:54.028Z,69.13
2023-01-30T10:40:14.281Z,72.31
2023-01-30T10:43:28.386Z,73.45
2023-01-30T10:46:41.350Z,73.44
2023-01-30T10:49:54.167Z,74.19
2023-01-30T10:53:15.308Z,74.25
2023-01-30T10:56:31.026Z,75.93
2023-01-30T11:00:14.675Z,76.00
2023-01-30T11:03:48.022Z,76.42
2023-01-30T11:06:52.517Z,77.25
2023-01-30T11:09:58.482Z,76.82
2023-01-30T11:13:20.005Z,78.30
2023-01-30T11:16:22.878Z,78.77
2023-01-30T11:19:32.732Z,79.72
2023-01-30T11:22:36.669Z,79.88
2023-01-30T11:25:51.196Z,79.92
2023-01-30T11:28:55.346Z,80.44
2023-01-30T11:32:06.560Z,80.29
2023-01-30T11:35:09.085Z,80.27
2023-01-30T11:38:21.322Z,80.80
2023-01-30T11:41:25.000Z,82.29
2023-01-30T11:44:34.020Z,81.70
2023-01-30T11:47:36.793Z,82.67
2023-01-30T11:50:49.569Z,82.74
2023-01-30T11:54:14.615Z,83.13
2023-01-30T11:57:19.662Z,88.84
2023-01-30T12:00:24.677Z,82.31
2023-01-30T12:03:29.559Z,83.84
2023-01-30T12:06:35.325Z,84.45
2023-01-30T12:09:40.737Z,84.48
2023-01-30T12:12:56.762Z,84.81
2023-01-30T12:16:15.254Z,85.14
2023-01-30T12:19:34.079Z,85.64
2023-01-30T12:22:55.540Z,85.85
2023-01-30T12:26:07.349Z,84.88
2023-01-30T12:29:48.208Z,85.29
2023-01-30T12:36:42.247Z,85.61
2023-01-30T12:39:57.519Z,85.96
2023-01-30T12:43:29.034Z,85.03
2023-01-30T12:47:02.175Z,86.16
2023-01-30T12:50:21.204Z,85.88
2023-01-30T12:53:50.330Z,84.05
2023-01-30T12:57:03.842Z,82.68
2023-01-30T13:00:27.823Z,82.39
2023-01-30T13:04:17.162Z,83.08
2023-01-30T13:07:33.144Z,82.01
2023-01-30T13:10:48.080Z,82.20
2023-01-30T13:13:56.911Z,83.34
2023-01-30T13:17:25.625Z,82.86
2023-01-30T13:20:37.748Z,82.25
2023-01-30T13:24:21.423Z,82.01
2023-01-30T13:27:25.671Z,82.25
2023-01-30T13:30:30.982Z,82.02
2023-01-30T13:33:37.212Z,81.59
2023-01-30T13:36:52.375Z,82.60
2023-01-30T13:39:59.777Z,81.83
2023-01-30T13:43:10.979Z,81.20
2023-01-30T13:46:24.626Z,80.70
2023-01-30T13:49:30.473Z,79.70
2023-01-30T13:52:49.925Z,80.02
2023-01-30T13:56:40.753Z,79.74
2023-01-30T13:59:56.006Z,78.39
2023-01-30T14:03:07.955Z,78.55
2023-01-30T14:06:29.367Z,77.75
2023-01-30T14:09:33.927Z,77.04
2023-01-30T14:12:44.646Z,77.40
2023-01-30T14:15:56.763Z,76.98
2023-01-30T14:18:59.639Z,77.38
2023-01-30T14:22:16.346Z,77.50
2023-01-30T14:25:27.903Z,78.19
2023-01-30T14:28:30.122Z,79.11
2023-01-30T14:31:49.937Z,79.37
2023-01-30T14:35:01.313Z,80.05
2023-01-30T14:38:11.178Z,80.33
2023-01-30T14:41:28.239Z,80.86
2023-01-30T14:44:59.605Z,82.07
2023-01-30T14:48:44.511Z,82.97
2023-01-30T14:51:47.884Z,83.01
2023-01-30T14:54:51.015Z,84.58
2023-01-30T14:58:00.622Z,85.20
2023-01-30T15:01:03.010Z,84.70
2023-01-30T15:04:05.705Z,84.85
2023-01-30T15:07:14.715Z,84.89
2023-01-30T15:10:29.081Z,87.67
2023-01-30T15:13:49.412Z,87.68
2023-01-30T15:17:15.066Z,86.78
2023-01-30T15:20:55.724Z,87.11
2023-01-30T15:24:21.227Z,87.02
2023-01-30T15:27:51.427Z,89.01
2023-01-30T15:31:08.699Z,88.65
2023-01-30T15:34:19.852Z,88.06
2023-01-30T15:37:36.790Z,88.27
2023-01-30T15:40:40.796Z,88.29
2023-01-30T15:44:21.184Z,89.05
2023-01-30T15:47:48.333Z,90.36
2023-01-30T15:50:55.098Z,90.23
2023-01-30T15:53:59.419Z,90.69
2023-01-30T15:57:01.993Z,91.04
2023-01-30T16:00:09.093Z,94.03
2023-01-30T16:03:21.686Z,96.16
2023-01-30T16:06:37.621Z,96.56
2023-01-30T16:09:39.851Z,98.49
2023-01-30T16:12:42.707Z,98.47
2023-01-30T16:16:08.314Z,99.89
2023-01-30T16:19:20.979Z,100.00
2023-01-30T16:22:23.396Z,100.00
2023-01-30T16:25:30.101Z,100.00
2023-01-30T16:28:32.670Z,100.00
2023-01-30T16:31:38.495Z,100.00
2023-01-30T16:34:40.881Z,100.00
2023-01-30T16:37:43.863Z,100.00
2023-01-30T16:40:46.622Z,100.00
2023-01-30T16:44:16.529Z,100.00
2023-01-30T16:47:21.522Z,100.00
2023-01-30T16:50:24.102Z,100.00
2023-01-30T16:53:29.136Z,100.00
2023-01-30T16:56:34.604Z,100.00
2023-01-30T16:59:37.895Z,100.00
2023-01-30T17:02:42.315Z,100.00
2023-01-30T17:05:46.636Z,100.00
2023-01-30T17:08:54.205Z,100.00
2023-01-30T17:11:56.648Z,100.00
2023-01-30T17:15:14.081Z,100.00
2023-01-30T17:18:17.135Z,100.00
2023-01-30T17:21:21.647Z,100.00
2023-01-30T17:24:25.394Z,100.00
2023-01-30T17:27:29.666Z,100.00
2023-01-30T17:30:32.102Z,100.00
2023-01-30T17:33:34.572Z,100.00
2023-01-30T17:36:36.763Z,100.00
2023-01-30T17:39:39.231Z,100.00
2023-01-30T17:42:41.386Z,100.00
2023-01-30T17:45:43.967Z,100.00
2023-01-30T17:48:46.340Z,100.00
2023-01-30T17:51:50.251Z,100.00
2023-01-30T17:54:52.317Z,100.00
2023-01-30T17:57:56.746Z,100.00
2023-01-30T18:00:58.915Z,100.00
2023-01-30T18:04:01.337Z,100.00
2023-01-30T18:07:06.351Z,100.00
2023-01-30T18:10:16.535Z,100.00
2023-01-30T18:13:18.824Z,100.00
2023-01-30T18:16:25.431Z,100.00
2023-01-30T18:19:28.996Z,100.00
2023-01-30T18:22:32.455Z,100.00
2023-01-30T18:25:34.650Z,100.00
2023-01-30T18:28:37.134Z,100.00
2023-01-30T18:31:40.931Z,100.00
2023-01-30T18:34:43.507Z,100.00
2023-01-30T18:37:45.713Z,100.00
2023-01-30T18:40:48.229Z,100.00
2023-01-30T18:43:58.253Z,100.00
2023-01-30T18:47:00.758Z,100.00
2023-01-30T18:50:04.368Z,100.00
2023-01-30T18:53:09.864Z,100.00
2023-01-30T18:56:17.394Z,100.00
2023-01-30T18:59:19.950Z,100.00
2023-01-30T19:02:25.060Z,100.00
2023-01-30T19:05:27.529Z,100.00
2023-01-30T19:08:30.789Z,100.00
2023-01-30T19:11:52.176Z,100.00
2023-01-30T19:14:54.339Z,100.00
2023-01-30T19:17:57.897Z,100.00
2023-01-30T19:21:03.474Z,100.00
2023-01-30T19:24:07.898Z,99.89
2023-01-30T19:27:13.805Z,100.00
2023-01-30T19:30:16.624Z,99.86
2023-01-30T19:33:18.943Z,99.12
2023-01-30T19:36:22.832Z,98.20
2023-01-30T19:39:24.879Z,98.15
2023-01-30T19:42:27.246Z,97.82
2023-01-30T19:45:42.783Z,97.10
2023-01-30T19:48:52.300Z,95.55
2023-01-30T19:51:54.493Z,95.81
2023-01-30T19:54:57.079Z,95.59
2023-01-30T19:57:59.233Z,96.36
2023-01-30T20:01:09.691Z,96.04
2023-01-30T20:04:12.226Z,96.10
2023-01-30T20:07:14.407Z,95.97
2023-01-30T20:10:17.538Z,95.81
2023-01-30T20:13:20.054Z,96.61
2023-01-30T20:16:25.582Z,96.49
2023-01-30T20:19:27.887Z,96.71
2023-01-30T20:22:30.432Z,96.29
2023-01-30T20:25:35.689Z,94.50
2023-01-30T20:28:38.922Z,95.10
2023-01-30T20:31:41.176Z,94.96
2023-01-30T20:34:43.634Z,94.78
2023-01-30T20:37:45.837Z,94.81
2023-01-30T20:40:48.394Z,95.14
2023-01-30T20:43:52.817Z,95.40
2023-01-30T20:46:56.621Z,94.90
2023-01-30T20:49:58.700Z,95.56
2023-01-30T20:53:01.228Z,94.78
2023-01-30T20:56:04.170Z,94.26
2023-01-30T20:59:07.772Z,92.16
2023-01-30T21:02:10.044Z,91.15
2023-01-30T21:05:12.548Z,91.74
2023-01-30T21:08:14.686Z,92.39
2023-01-30T21:11:20.191Z,92.62
2023-01-30T21:14:23.294Z,93.01
2023-01-30T21:17:27.991Z,94.00
2023-01-30T21:20:30.047Z,93.28
2023-01-30T21:23:33.228Z,93.30
2023-01-30T21:26:38.305Z,90.73
2023-01-30T21:29:40.843Z,90.35
2023-01-30T21:32:43.060Z,90.83
2023-01-30T21:35:45.585Z,92.35
2023-01-30T21:39:06.555Z,94.27
2023-01-30T21:42:27.634Z,96.31
2023-01-30T21:45:30.110Z,97.65
2023-01-30T21:48:34.893Z,98.90
2023-01-30T21:51:37.794Z,100.00
2023-01-30T21:54:40.243Z,100.00
2023-01-30T21:57:42.384Z,100.00
2023-01-30T22:00:45.305Z,100.00
2023-01-30T22:03:48.352Z,100.00
2023-01-30T22:06:50.564Z,100.00
2023-01-30T22:09:53.079Z,99.75
2023-01-30T22:12:55.237Z,96.96
2023-01-30T22:16:02.792Z,98.01
2023-01-30T22:19:05.263Z,99.36
2023-01-30T22:22:07.671Z,99.56
2023-01-30T22:25:09.962Z,99.49
2023-01-30T22:28:12.493Z,99.69
2023-01-30T22:31:19.733Z,100.00
2023-01-30T22:34:22.369Z,99.54
2023-01-30T22:37:24.513Z,98.30
2023-01-30T22:40:27.268Z,98.97
2023-01-30T22:43:31.180Z,96.60
2023-01-30T22:46:36.410Z,95.98
2023-01-30T22:49:38.720Z,96.74
2023-01-30T22:52:41.152Z,92.99
2023-01-30T22:55:43.302Z,91.41
2023-01-30T22:58:46.747Z,90.04
2023-01-30T23:01:53.029Z,90.79
2023-01-30T23:04:55.453Z,90.96
2023-01-30T23:07:57.627Z,90.47
2023-01-30T23:11:06.950Z,90.33
2023-01-30T23:14:16.462Z,87.40
2023-01-30T23:17:37.861Z,87.22
2023-01-30T23:20:40.294Z,86.51
2023-01-30T23:23:44.007Z,84.67
2023-01-30T23:26:51.361Z,82.98
2023-01-30T23:29:53.836Z,83.10
2023-01-30T23:32:56.022Z,83.48
2023-01-30T23:36:04.114Z,83.42
2023-01-30T23:39:06.271Z,85.30
2023-01-30T23:42:08.698Z,86.20
2023-01-30T23:45:11.050Z,88.37
2023-01-30T23:48:13.551Z,91.62
2023-01-30T23:51:17.304Z,93.53
2023-01-30T23:54:20.119Z,96.00
2023-01-30T23:57:22.308Z,97.27
